Time;durP1;ratioP1;P1;durP2;ratioP2;P2;SDS_P1;SDS_P2;PMS_P1;PMS_P2;Temp;Humidity;BMP_temperature;BMP_pressure;BME280_temperature;BME280_humidity;BME280_pressure;Samples;Min_cycle;Max_cycle;Signal;HPM_P1;HPM_P2
2021/08/09 00:00:39;;;;;;;0.20;0.20;;;;;;;18.01;62.99;101336.09;6306632;22;20297;-90
2021/08/09 00:03:05;;;;;;;0.10;0.10;;;;;;;18.01;62.71;101333.41;6306745;22;20027;-90
2021/08/09 00:05:34;;;;;;;0.00;0.00;;;;;;;18.04;62.83;101337.75;6305570;22;20015;-89
2021/08/09 00:08:00;;;;;;;0.10;0.10;;;;;;;18.11;62.63;101334.72;6305951;22;20034;-89
2021/08/09 00:10:29;;;;;;;0.10;0.10;;;;;;;18.03;62.93;101334.22;6306725;22;20007;-88
2021/08/09 00:12:56;;;;;;;0.10;0.10;;;;;;;18.08;62.88;101334.88;6307147;22;20431;-90
2021/08/09 00:15:23;;;;;;;0.10;0.10;;;;;;;18.10;62.81;101337.50;6306507;22;20047;-89
2021/08/09 00:17:51;;;;;;;0.75;0.75;;;;;;;18.13;62.65;101341.84;6306571;22;20038;-91
2021/08/09 00:20:19;;;;;;;0.10;0.10;;;;;;;18.05;62.76;101339.50;6306316;22;20086;-90
2021/08/09 00:22:45;;;;;;;0.10;0.10;;;;;;;18.04;62.79;101333.25;6306596;22;20007;-90
2021/08/09 00:25:12;;;;;;;1.08;0.95;;;;;;;18.02;62.73;101340.50;6306635;22;20007;-92
2021/08/09 00:27:39;;;;;;;0.20;0.20;;;;;;;18.07;62.59;101337.63;6305287;22;20528;-89
2021/08/09 00:30:07;;;;;;;0.10;0.10;;;;;;;17.99;63.09;101340.63;6306699;22;20043;-89
2021/08/09 00:32:34;;;;;;;0.20;0.20;;;;;;;17.96;62.91;101343.44;6306443;22;20007;-89
2021/08/09 00:35:04;;;;;;;0.30;0.30;;;;;;;17.86;63.32;101342.94;6307614;22;20011;-89
2021/08/09 00:37:34;;;;;;;0.30;0.30;;;;;;;17.84;63.34;101335.91;6308140;22;20008;-90
2021/08/09 00:40:00;;;;;;;0.90;0.90;;;;;;;17.91;63.00;101342.75;6311437;22;20003;-89
2021/08/09 00:42:27;;;;;;;0.10;0.10;;;;;;;17.87;63.32;101343.78;6310488;22;20082;-90
2021/08/09 00:44:53;;;;;;;7.57;1.13;;;;;;;17.82;63.43;101343.13;6307085;22;20007;-90
2021/08/09 00:47:31;;;;;;;0.25;0.25;;;;;;;17.85;63.29;101345.69;6306136;22;20033;-90
2021/08/09 00:49:58;;;;;;;0.30;0.30;;;;;;;17.84;63.44;101351.97;6306157;22;20007;-90
2021/08/09 00:52:25;;;;;;;0.10;0.10;;;;;;;17.81;63.07;101346.75;6306306;22;20015;-90
2021/08/09 00:54:51;;;;;;;0.10;0.10;;;;;;;17.79;63.42;101344.13;6307200;22;20003;-90
2021/08/09 00:57:18;;;;;;;0.13;0.13;;;;;;;17.84;63.28;101341.25;6308321;22;20011;-90
2021/08/09 00:59:45;;;;;;;0.10;0.10;;;;;;;17.83;63.07;101355.59;6308675;22;20003;-90
2021/08/09 01:02:11;;;;;;;0.10;0.10;;;;;;;17.71;63.29;101346.28;6308419;22;20322;-90
2021/08/09 01:04:38;;;;;;;0.20;0.20;;;;;;;17.82;63.24;101351.16;6308298;22;20030;-90
2021/08/09 01:07:06;;;;;;;3.40;2.47;;;;;;;17.71;63.77;101355.19;6308490;22;20057;-90
2021/08/09 01:12:50;;;;;;;0.10;0.10;;;;;;;17.87;63.29;101354.53;5067602;28;20395;-88
2021/08/09 01:15:37;;;;;;;1.02;0.98;;;;;;;17.75;63.62;101354.09;5057765;28;20037;-89
2021/08/09 01:18:05;;;;;;;0.00;0.00;;;;;;;17.75;63.68;101350.56;5056925;28;20940;-88
2021/08/09 01:23:46;;;;;;;0.10;0.10;;;;;;;17.72;63.63;101348.00;5058800;27;20431;-88
2021/08/09 01:26:24;;;;;;;0.10;0.10;;;;;;;17.68;63.61;101351.75;5040912;28;20032;-89
2021/08/09 01:28:54;;;;;;;0.20;0.20;;;;;;;17.57;63.85;101360.22;5040978;28;20036;-87
2021/08/09 01:31:24;;;;;;;0.17;0.17;;;;;;;17.66;63.82;101350.94;5041750;28;20028;-88
2021/08/09 01:33:51;;;;;;;0.10;0.10;;;;;;;17.64;63.54;101351.00;5043414;28;20035;-88
2021/08/09 01:36:18;;;;;;;0.10;0.10;;;;;;;17.72;63.54;101348.88;5042049;28;20029;-88
2021/08/09 01:38:47;;;;;;;1.77;1.35;;;;;;;17.66;63.82;101362.53;5045014;28;20029;-88
2021/08/09 01:41:15;;;;;;;0.10;0.10;;;;;;;17.63;63.69;101366.22;5041325;28;20431;-88
2021/08/09 01:43:43;;;;;;;0.17;0.17;;;;;;;17.51;64.03;101357.81;5042032;28;20032;-89
2021/08/09 01:46:12;;;;;;;0.10;0.10;;;;;;;17.61;63.90;101361.88;5045616;28;20476;-88
2021/08/09 01:48:40;;;;;;;0.20;0.20;;;;;;;17.51;64.00;101364.03;5050300;28;20037;-88
2021/08/09 01:51:07;;;;;;;0.50;0.50;;;;;;;17.55;63.99;101362.13;5050763;28;20411;-88
2021/08/09 01:53:33;;;;;;;0.10;0.10;;;;;;;17.49;64.22;101371.25;5033265;28;20025;-87
2021/08/09 01:56:00;;;;;;;0.15;0.15;;;;;;;17.61;63.77;101361.88;5050158;28;20417;-90
2021/08/09 01:58:27;;;;;;;0.10;0.10;;;;;;;17.66;63.57;101359.88;5050448;28;20550;-88
2021/08/09 02:00:53;;;;;;;0.10;0.10;;;;;;;17.58;63.91;101362.88;5050537;28;20032;-89
2021/08/09 02:03:20;;;;;;;0.10;0.10;;;;;;;17.58;63.77;101368.22;5050448;28;20037;-88
2021/08/09 02:05:46;;;;;;;0.88;0.68;;;;;;;17.55;63.97;101367.47;5050013;28;20029;-89
2021/08/09 02:08:14;;;;;;;9.23;1.65;;;;;;;17.57;63.76;101370.94;5049951;28;20116;-89
2021/08/09 02:10:42;;;;;;;0.35;0.35;;;;;;;17.46;64.01;101372.25;5050145;28;20033;-89
2021/08/09 02:16:00;;;;;;;0.20;0.20;;;;;;;17.57;63.73;101373.63;5078353;27;20800;-89
2021/08/09 02:18:43;;;;;;;0.10;0.10;;;;;;;17.52;64.09;101375.63;5070400;28;20399;-89
2021/08/09 02:21:14;;;;;;;0.30;0.30;;;;;;;17.52;63.80;101372.94;5070625;28;20070;-89
2021/08/09 02:24:04;;;;;;;1.10;1.10;;;;;;;17.64;63.69;101377.81;5066813;28;20480;-89
2021/08/09 02:26:34;;;;;;;1.08;0.63;;;;;;;17.66;63.39;101373.25;5062237;28;20041;-89
2021/08/09 02:29:20;;;;;;;0.65;0.65;;;;;;;17.68;63.59;101374.06;5054872;28;20033;-88
2021/08/09 02:31:48;;;;;;;1.55;1.13;;;;;;;17.64;63.52;101372.44;5052929;28;20048;-90
2021/08/09 02:34:18;;;;;;;0.13;0.13;;;;;;;17.72;63.38;101373.00;5059507;28;20119;-88
2021/08/09 02:36:44;;;;;;;0.43;0.43;;;;;;;17.66;63.45;101381.31;5057354;28;20029;-89
2021/08/09 02:39:12;;;;;;;0.30;0.30;;;;;;;17.63;63.94;101376.06;5067014;28;20464;-89
2021/08/09 02:41:40;;;;;;;0.10;0.10;;;;;;;17.69;63.55;101378.47;5054818;28;20017;-88
2021/08/09 02:44:07;;;;;;;0.10;0.10;;;;;;;17.59;63.83;101380.66;5067094;28;20037;-87
2021/08/09 02:46:34;;;;;;;0.10;0.10;;;;;;;17.59;64.20;101369.94;5059140;28;20067;-88
2021/08/09 02:49:01;;;;;;;0.20;0.20;;;;;;;17.62;63.75;101377.88;5055697;28;20025;-88
2021/08/09 02:51:28;;;;;;;0.10;0.10;;;;;;;17.66;63.72;101386.66;5066454;28;20494;-90
2021/08/09 02:53:55;;;;;;;0.20;0.20;;;;;;;17.56;63.97;101372.75;5056057;28;20025;-89
2021/08/09 02:56:24;;;;;;;0.10;0.10;;;;;;;17.71;63.79;101375.75;5060046;28;20037;-90
2021/08/09 02:58:54;;;;;;;0.10;0.10;;;;;;;17.65;63.73;101376.00;5063725;28;20155;-89
2021/08/09 03:01:23;;;;;;;0.10;0.10;;;;;;;17.67;64.03;101383.06;5056718;28;20025;-89
2021/08/09 03:03:54;;;;;;;0.20;0.20;;;;;;;17.69;63.96;101381.16;5060204;28;20041;-88
2021/08/09 03:06:22;;;;;;;0.10;0.10;;;;;;;17.70;63.87;101374.00;5058963;28;20022;-89
2021/08/09 03:08:51;;;;;;;0.30;0.30;;;;;;;17.68;63.71;101374.06;5063166;28;20071;-89
2021/08/09 03:11:18;;;;;;;0.10;0.10;;;;;;;17.74;63.95;101379.16;5052852;28;20036;-88
2021/08/09 03:13:47;;;;;;;0.10;0.10;;;;;;;17.69;63.87;101381.16;5064107;28;20033;-89
2021/08/09 03:16:14;;;;;;;0.63;0.63;;;;;;;17.75;63.79;101380.06;5058551;28;20078;-89
2021/08/09 03:18:40;;;;;;;0.25;0.25;;;;;;;17.78;63.75;101378.13;5056093;28;20439;-90
2021/08/09 03:21:07;;;;;;;0.10;0.10;;;;;;;17.73;63.73;101388.16;5065336;28;20395;-88
2021/08/09 03:23:35;;;;;;;1.20;0.85;;;;;;;17.81;63.91;101389.63;5052734;28;20040;-90
2021/08/09 03:26:01;;;;;;;0.90;0.90;;;;;;;17.76;63.82;101387.16;5055432;28;20033;-89
2021/08/09 03:28:28;;;;;;;18.52;1.38;;;;;;;17.80;63.97;101388.75;5046779;28;20048;-88
2021/08/09 03:30:54;;;;;;;0.10;0.10;;;;;;;17.73;64.08;101388.16;5040810;28;20053;-89
2021/08/09 03:33:20;;;;;;;0.10;0.10;;;;;;;17.70;64.13;101385.59;5052250;28;20392;-88
2021/08/09 03:36:16;;;;;;;0.20;0.20;;;;;;;17.63;64.70;101386.78;5040403;28;20029;-92
2021/08/09 03:38:45;;;;;;;1.77;0.45;;;;;;;17.60;64.79;101390.44;5024344;28;20041;-90
2021/08/09 03:41:11;;;;;;;1.13;1.13;;;;;;;17.63;64.61;101381.41;5052200;28;20036;-90
2021/08/09 03:43:38;;;;;;;0.10;0.10;;;;;;;17.63;64.88;101387.66;5039859;28;20025;-88
2021/08/09 03:46:04;;;;;;;0.10;0.10;;;;;;;17.65;64.42;101397.44;5047694;28;20060;-89
2021/08/09 03:48:31;;;;;;;0.10;0.10;;;;;;;17.43;65.14;101396.50;5047669;28;20502;-89
2021/08/09 03:50:57;;;;;;;1.23;1.10;;;;;;;17.60;64.67;101394.94;5040951;28;20070;-89
2021/08/09 03:53:23;;;;;;;0.10;0.10;;;;;;;17.67;64.17;101396.44;5052252;28;20074;-89
2021/08/09 03:55:50;;;;;;;0.60;0.60;;;;;;;17.62;64.52;101395.78;5044465;28;20060;-90
2021/08/09 03:58:25;;;;;;;0.10;0.10;;;;;;;17.68;64.64;101395.50;5049629;28;20033;-87
2021/08/09 04:01:00;;;;;;;0.10;0.10;;;;;;;17.73;64.44;101392.63;5049655;28;20037;-87
2021/08/09 04:03:34;;;;;;;0.10;0.10;;;;;;;17.67;64.85;101393.78;5039142;28;20021;-89
2021/08/09 04:06:07;;;;;;;2.05;1.65;;;;;;;17.73;64.45;101389.94;5047870;28;20033;-88
2021/08/09 04:08:33;;;;;;;0.20;0.20;;;;;;;17.63;64.85;101387.66;5046774;28;20473;-89
2021/08/09 04:10:59;;;;;;;0.10;0.10;;;;;;;17.67;64.98;101393.78;5039313;28;20049;-89
2021/08/09 04:13:25;;;;;;;0.10;0.10;;;;;;;17.62;64.92;101388.59;5051658;28;20040;-89
2021/08/09 04:15:52;;;;;;;0.10;0.10;;;;;;;17.63;64.97;101397.50;5041070;28;20033;-89
2021/08/09 04:18:18;;;;;;;1.48;1.38;;;;;;;17.67;65.09;101401.81;5045413;28;20384;-90
2021/08/09 04:20:44;;;;;;;0.25;0.25;;;;;;;17.59;64.71;101401.25;5047767;28;20021;-89
2021/08/09 04:23:11;;;;;;;1.13;1.05;;;;;;;17.68;64.79;101405.34;5038942;28;20029;-90
2021/08/09 04:25:37;;;;;;;0.10;0.10;;;;;;;17.69;64.82;101397.25;5050295;28;20116;-89
2021/08/09 04:28:03;;;;;;;0.10;0.10;;;;;;;17.76;64.90;101400.56;5042885;28;20029;-88
2021/08/09 04:30:30;;;;;;;0.10;0.10;;;;;;;17.72;64.40;101401.59;5043026;28;20022;-89
2021/08/09 04:33:03;;;;;;;0.10;0.10;;;;;;;17.73;64.52;101404.25;5049381;28;20035;-90
2021/08/09 04:35:30;;;;;;;0.20;0.20;;;;;;;17.72;64.86;101410.53;5037066;28;20099;-89
2021/08/09 04:37:57;;;;;;;0.10;0.10;;;;;;;17.70;64.58;101403.50;5046118;28;20026;-90
2021/08/09 04:40:23;;;;;;;0.05;0.05;;;;;;;17.75;64.51;101407.72;5044463;28;20040;-89
2021/08/09 04:42:50;;;;;;;0.10;0.10;;;;;;;17.72;64.56;101407.84;5039696;28;20476;-89
2021/08/09 04:45:16;;;;;;;0.38;0.38;;;;;;;17.82;64.35;101415.50;5050202;28;20037;-90
2021/08/09 04:47:43;;;;;;;0.10;0.10;;;;;;;17.84;64.22;101406.47;5039016;28;20028;-89
2021/08/09 04:50:10;;;;;;;0.00;0.00;;;;;;;17.86;64.47;101415.31;5049723;28;20054;-89
2021/08/09 04:53:01;;;;;;;0.10;0.10;;;;;;;17.95;64.22;101420.31;5041831;28;20126;-91
2021/08/09 04:55:28;;;;;;;0.10;0.10;;;;;;;17.89;64.38;101425.03;5045933;28;20060;-89
2021/08/09 04:57:54;;;;;;;0.10;0.10;;;;;;;17.91;64.45;101424.03;5040362;28;20029;-89
2021/08/09 05:00:20;;;;;;;0.10;0.10;;;;;;;18.00;64.32;101424.63;5045590;28;20115;-88
2021/08/09 05:02:47;;;;;;;0.20;0.20;;;;;;;18.04;64.31;101427.09;5039969;28;20021;-87
2021/08/09 05:05:13;;;;;;;0.10;0.10;;;;;;;18.09;63.97;101418.88;5037412;28;20056;-88
2021/08/09 05:07:45;;;;;;;0.00;0.00;;;;;;;18.06;64.52;101425.22;5042453;28;20379;-90
2021/08/09 05:10:22;;;;;;;0.10;0.10;;;;;;;18.11;64.25;101420.53;5045663;28;20443;-91
2021/08/09 05:12:48;;;;;;;8.90;0.80;;;;;;;17.94;64.79;101409.66;5048143;28;20345;-88
2021/08/09 05:15:15;;;;;;;0.10;0.10;;;;;;;18.02;64.55;101415.59;5037217;28;20055;-89
2021/08/09 05:17:41;;;;;;;0.10;0.10;;;;;;;17.95;64.78;101425.66;5048771;28;20036;-91
2021/08/09 05:20:09;;;;;;;0.10;0.10;;;;;;;17.91;64.92;101421.34;5040786;28;20028;-90
2021/08/09 05:22:35;;;;;;;0.10;0.10;;;;;;;17.91;64.74;101417.81;5045138;28;20426;-89
2021/08/09 05:25:09;;;;;;;0.10;0.10;;;;;;;17.85;64.93;101423.44;5040324;28;20049;-90
2021/08/09 05:27:52;;;;;;;0.52;0.52;;;;;;;17.85;65.04;101426.09;5040997;28;20026;-92
2021/08/09 05:30:22;;;;;;;0.10;0.10;;;;;;;17.99;64.76;101421.06;5036679;28;20049;-91
2021/08/09 05:32:49;;;;;;;0.10;0.10;;;;;;;17.90;64.92;101422.28;5034954;28;20026;-91
2021/08/09 05:35:25;;;;;;;0.10;0.10;;;;;;;17.90;64.60;101427.66;5049207;28;20078;-91
2021/08/09 05:37:51;;;;;;;0.17;0.17;;;;;;;17.94;64.69;101421.28;5039340;28;20473;-90
2021/08/09 05:40:18;;;;;;;0.10;0.10;;;;;;;17.97;64.67;101422.94;5043567;28;20030;-90
2021/08/09 05:42:48;;;;;;;0.10;0.10;;;;;;;18.04;64.59;101428.91;5046038;28;20065;-91
2021/08/09 05:45:15;;;;;;;0.10;0.10;;;;;;;18.08;64.42;101426.06;5036052;28;20033;-90
2021/08/09 05:47:44;;;;;;;0.10;0.10;;;;;;;18.16;64.27;101424.84;5052784;28;20025;-90
2021/08/09 05:50:13;;;;;;;0.10;0.10;;;;;;;18.18;64.31;101431.00;5049106;28;20029;-90
2021/08/09 05:52:39;;;;;;;0.00;0.00;;;;;;;18.22;63.80;101438.00;5042157;28;20021;-90
2021/08/09 05:55:07;;;;;;;0.10;0.10;;;;;;;18.30;63.91;101435.00;5052688;28;20041;-90
2021/08/09 05:57:33;;;;;;;0.10;0.10;;;;;;;18.27;64.08;101441.38;5041369;28;20029;-90
2021/08/09 06:00:00;;;;;;;0.10;0.10;;;;;;;18.29;64.03;101442.16;5043623;28;20084;-90
2021/08/09 06:02:26;;;;;;;0.30;0.30;;;;;;;18.35;63.70;101436.53;5040914;28;20090;-87
2021/08/09 06:04:52;;;;;;;0.10;0.10;;;;;;;18.36;63.45;101450.81;5037813;28;20471;-88
2021/08/09 06:07:18;;;;;;;0.10;0.10;;;;;;;18.27;63.86;101452.09;5037244;28;20125;-87
2021/08/09 06:09:45;;;;;;;0.10;0.10;;;;;;;18.40;63.55;101445.22;5047221;28;20456;-88
2021/08/09 06:12:15;;;;;;;0.10;0.10;;;;;;;18.50;63.67;101453.75;5039396;28;20116;-91
2021/08/09 06:14:41;;;;;;;0.10;0.10;;;;;;;18.27;63.78;101452.09;5037667;28;20115;-90
2021/08/09 06:17:07;;;;;;;0.32;0.32;;;;;;;18.37;63.81;101461.47;5043094;28;20113;-90
2021/08/09 06:19:35;;;;;;;0.10;0.10;;;;;;;18.37;63.51;101453.44;5040787;28;20021;-90
2021/08/09 06:22:02;;;;;;;0.10;0.10;;;;;;;18.50;63.27;101453.75;5041434;28;20021;-90
2021/08/09 06:24:29;;;;;;;0.17;0.17;;;;;;;18.55;63.40;101450.88;5042164;28;20512;-90
2021/08/09 06:26:57;;;;;;;0.10;0.10;;;;;;;18.50;63.56;101447.53;5040088;28;20022;-91
2021/08/09 06:29:24;;;;;;;0.10;0.10;;;;;;;18.55;63.29;101451.75;5041794;28;20029;-90
2021/08/09 06:31:50;;;;;;;0.20;0.20;;;;;;;18.62;63.07;101448.78;5041142;28;20057;-90
2021/08/09 06:34:16;;;;;;;0.10;0.10;;;;;;;18.71;63.10;101446.56;5041485;28;20074;-90
2021/08/09 06:36:43;;;;;;;1.02;1.00;;;;;;;18.74;62.99;101453.63;5042358;28;20029;-91
2021/08/09 06:39:11;;;;;;;0.10;0.10;;;;;;;18.83;62.35;101449.66;5038491;28;20026;-89
2021/08/09 06:41:37;;;;;;;0.10;0.10;;;;;;;18.81;62.41;101447.03;5040569;28;20029;-90
2021/08/09 06:44:04;;;;;;;0.10;0.10;;;;;;;18.92;62.05;101444.78;5041092;28;20026;-90
2021/08/09 06:46:30;;;;;;;0.10;0.10;;;;;;;18.90;62.32;101443.06;5042771;28;20365;-91
2021/08/09 06:48:56;;;;;;;0.73;0.73;;;;;;;18.98;62.31;101446.31;5044216;28;20029;-89
2021/08/09 06:51:22;;;;;;;0.10;0.10;;;;;;;19.00;62.63;101449.78;5040985;28;20033;-89
2021/08/09 06:54:20;;;;;;;1.15;1.05;;;;;;;19.15;62.60;101455.41;5041243;28;20029;-91
2021/08/09 06:56:47;;;;;;;0.10;0.10;;;;;;;19.07;62.29;101459.31;5042405;28;20037;-91
2021/08/09 06:59:13;;;;;;;0.10;0.10;;;;;;;19.15;62.07;101450.03;5047106;28;20039;-90
2021/08/09 07:01:39;;;;;;;0.10;0.10;;;;;;;19.21;61.97;101449.75;5043108;28;20030;-91
2021/08/09 07:04:05;;;;;;;0.65;0.65;;;;;;;19.30;62.07;101453.81;5045912;28;20284;-88
2021/08/09 07:06:31;;;;;;;0.20;0.20;;;;;;;19.47;61.56;101451.19;5040705;28;20427;-89
2021/08/09 07:08:59;;;;;;;0.10;0.10;;;;;;;19.67;61.30;101442.16;5049840;28;20032;-89
2021/08/09 07:11:25;;;;;;;0.20;0.20;;;;;;;19.72;60.66;101445.50;5056552;28;20029;-88
2021/08/09 07:13:52;;;;;;;0.13;0.13;;;;;;;19.85;60.37;101450.31;5056545;28;20040;-90
2021/08/09 07:16:23;;;;;;;0.75;0.75;;;;;;;19.79;58.63;101445.19;5051964;28;20034;-86
2021/08/09 07:18:50;;;;;;;0.10;0.10;;;;;;;20.08;59.14;101445.63;5029798;28;20037;-84
2021/08/09 07:21:16;;;;;;;0.10;0.10;;;;;;;19.96;58.14;101452.47;5035615;28;20033;-84
2021/08/09 07:23:43;;;;;;;0.10;0.10;;;;;;;20.19;58.70;101448.63;5035262;28;20061;-86
2021/08/09 07:26:09;;;;;;;0.22;0.22;;;;;;;20.13;57.83;101449.81;5035577;28;20473;-84
2021/08/09 07:28:36;;;;;;;0.10;0.10;;;;;;;20.15;57.90;101447.03;5049067;28;20389;-83
2021/08/09 07:31:02;;;;;;;0.20;0.20;;;;;;;20.25;58.11;101459.09;5039354;28;20384;-83
2021/08/09 07:33:28;;;;;;;1.35;1.27;;;;;;;20.35;57.95;101449.59;5036151;28;20030;-83
2021/08/09 07:35:55;;;;;;;0.10;0.10;;;;;;;20.38;57.23;101447.69;5043105;28;20115;-83
2021/08/09 07:38:21;;;;;;;0.10;0.10;;;;;;;20.46;57.06;101450.84;5044506;28;20029;-84
2021/08/09 07:40:47;;;;;;;1.02;1.02;;;;;;;20.60;56.77;101452.78;5048503;28;20025;-83
2021/08/09 07:43:13;;;;;;;0.10;0.10;;;;;;;20.60;57.29;101452.78;5054391;28;20365;-83
2021/08/09 07:45:40;;;;;;;0.15;0.15;;;;;;;20.60;56.73;101456.38;5054825;28;20375;-86
2021/08/09 07:48:06;;;;;;;0.10;0.10;;;;;;;20.78;56.50;101459.09;5054773;28;20095;-84
2021/08/09 07:50:32;;;;;;;0.10;0.10;;;;;;;20.70;55.94;101459.47;5054777;28;20025;-85
2021/08/09 07:52:58;;;;;;;0.20;0.20;;;;;;;20.74;56.39;101457.50;5045033;28;20068;-85
2021/08/09 07:55:25;;;;;;;0.10;0.10;;;;;;;20.83;56.85;101454.31;5044397;28;20083;-84
2021/08/09 07:57:52;;;;;;;0.10;0.10;;;;;;;20.70;56.24;101454.06;5042719;28;20021;-84
2021/08/09 08:00:18;;;;;;;0.10;0.10;;;;;;;20.91;56.48;101453.91;5044777;28;20044;-85
2021/08/09 08:02:45;;;;;;;0.00;0.00;;;;;;;20.88;55.38;101454.06;5043024;28;20033;-85
2021/08/09 08:05:11;;;;;;;0.90;0.90;;;;;;;20.88;55.38;101464.84;5041631;28;20029;-88
2021/08/09 08:07:37;;;;;;;0.10;0.10;;;;;;;21.00;55.45;101453.41;5043976;28;20045;-87
2021/08/09 08:10:03;;;;;;;0.10;0.10;;;;;;;21.09;55.50;101449.34;5044252;28;20063;-87
2021/08/09 08:12:30;;;;;;;0.43;0.43;;;;;;;21.08;55.70;101439.53;5043024;28;20443;-87
2021/08/09 08:14:56;;;;;;;0.35;0.35;;;;;;;21.21;55.57;101440.59;5043334;28;20486;-88
2021/08/09 08:17:23;;;;;;;0.73;0.73;;;;;;;21.42;55.05;101434.94;5044817;28;20053;-87
2021/08/09 08:19:51;;;;;;;0.10;0.10;;;;;;;21.52;55.39;101433.47;5042487;28;20373;-88
2021/08/09 08:22:17;;;;;;;0.10;0.10;;;;;;;21.63;54.79;101432.88;5043740;28;20049;-87
2021/08/09 08:24:43;;;;;;;0.30;0.30;;;;;;;21.56;54.57;101440.47;5044607;28;20034;-87
2021/08/09 08:27:10;;;;;;;0.17;0.17;;;;;;;21.67;54.14;101438.97;5042616;28;20082;-87
2021/08/09 08:29:37;;;;;;;0.30;0.30;;;;;;;21.76;54.36;101441.16;5043609;28;20037;-87
2021/08/09 08:32:03;;;;;;;0.10;0.10;;;;;;;21.80;54.33;101434.63;5041493;28;20076;-88
2021/08/09 08:34:29;;;;;;;0.38;0.38;;;;;;;21.90;54.29;101440.34;5042631;28;20025;-88
2021/08/09 08:36:56;;;;;;;0.10;0.10;;;;;;;21.94;54.78;101442.78;5044700;28;20040;-90
2021/08/09 08:39:22;;;;;;;0.10;0.10;;;;;;;21.89;54.61;101439.47;5043345;28;20151;-88
2021/08/09 08:41:48;;;;;;;0.10;0.10;;;;;;;21.89;53.87;101447.56;5043086;28;20033;-87
2021/08/09 08:44:18;;;;;;;0.20;0.20;;;;;;;21.97;54.68;101442.59;5043886;28;20093;-88
2021/08/09 08:46:46;;;;;;;0.10;0.10;;;;;;;22.08;54.68;101444.66;5043126;28;20025;-87
2021/08/09 08:49:14;;;;;;;0.10;0.10;;;;;;;22.23;54.60;101442.00;5042132;28;20098;-85
2021/08/09 08:51:43;;;;;;;0.10;0.10;;;;;;;22.13;53.40;101437.16;5042194;28;20026;-85
2021/08/09 08:54:12;;;;;;;0.10;0.10;;;;;;;22.17;53.87;101443.25;5042784;28;20079;-86
2021/08/09 08:56:39;;;;;;;0.20;0.20;;;;;;;22.21;54.27;101438.53;5042832;28;20052;-92
2021/08/09 08:59:07;;;;;;;0.20;0.20;;;;;;;22.14;54.40;101440.72;5045424;28;20045;-86
2021/08/09 09:01:36;;;;;;;0.10;0.10;;;;;;;22.23;54.35;101442.88;5043232;28;20095;-87
2021/08/09 09:04:31;;;;;;;0.10;0.10;;;;;;;22.32;53.77;101448.66;5043642;28;20067;-87
2021/08/09 09:07:13;;;;;;;0.10;0.10;;;;;;;22.19;53.52;101444.00;5043644;28;20094;-86
2021/08/09 09:09:39;;;;;;;0.20;0.20;;;;;;;22.14;53.64;101451.50;5041724;28;20028;-86
2021/08/09 09:12:21;;;;;;;0.20;0.20;;;;;;;22.13;53.91;101449.75;5043327;28;20393;-86
2021/08/09 09:15:02;;;;;;;0.10;0.10;;;;;;;22.33;53.76;101447.72;5042564;28;20084;-86
2021/08/09 09:17:38;;;;;;;0.10;0.10;;;;;;;22.30;53.76;101452.31;5029814;28;20104;-86
2021/08/09 09:20:26;;;;;;;0.20;0.20;;;;;;;22.46;53.79;101451.44;5041221;28;20372;-87
2021/08/09 09:23:12;;;;;;;0.10;0.10;;;;;;;22.43;53.48;101449.81;5042877;28;20431;-86
2021/08/09 09:25:38;;;;;;;19.15;0.63;;;;;;;22.39;53.27;101445.56;5042589;28;20025;-86
2021/08/09 09:28:29;;;;;;;0.10;0.10;;;;;;;22.35;53.26;101441.25;5041655;28;20477;-87
2021/08/09 09:31:01;;;;;;;0.10;0.10;;;;;;;22.24;53.59;101447.31;5039862;28;20429;-86
2021/08/09 09:33:30;;;;;;;0.20;0.20;;;;;;;22.52;53.67;101447.50;5041260;28;20024;-86
2021/08/09 09:36:01;;;;;;;0.10;0.10;;;;;;;22.40;54.44;101454.53;5042347;28;20028;-86
2021/08/09 09:38:27;;;;;;;0.10;0.10;;;;;;;22.43;53.51;101449.81;5041726;28;20421;-86
2021/08/09 09:41:05;;;;;;;0.10;0.10;;;;;;;22.53;52.27;101450.13;5040404;28;20132;-86
2021/08/09 09:43:39;;;;;;;0.10;0.10;;;;;;;22.79;52.68;101450.31;5042244;28;20374;-86
2021/08/09 09:46:05;;;;;;;0.40;0.40;;;;;;;23.00;52.11;101447.25;5041257;28;20021;-86
2021/08/09 09:48:34;;;;;;;0.08;0.08;;;;;;;23.00;50.64;101447.25;5040693;28;20029;-86
2021/08/09 09:51:16;;;;;;;0.10;0.10;;;;;;;23.19;48.99;101453.28;5039177;28;20029;-86
2021/08/09 09:53:45;;;;;;;0.10;0.10;;;;;;;23.17;49.24;101449.78;5046056;28;20098;-87
2021/08/09 09:56:12;;;;;;;0.20;0.20;;;;;;;22.84;48.94;101456.34;5045652;28;20017;-86
2021/08/09 09:58:39;;;;;;;0.10;0.10;;;;;;;22.85;49.28;101452.66;5045283;28;20075;-86
2021/08/09 10:01:07;;;;;;;0.20;0.20;;;;;;;22.74;49.75;101457.84;5035415;28;20506;-86
2021/08/09 10:03:35;;;;;;;0.10;0.10;;;;;;;22.89;50.66;101443.41;5035563;28;20041;-86
2021/08/09 10:06:02;;;;;;;0.10;0.10;;;;;;;22.59;50.24;101455.16;5042933;28;20026;-86
2021/08/09 10:08:34;;;;;;;0.10;0.10;;;;;;;22.65;51.28;101455.72;5038053;28;20029;-86
2021/08/09 10:11:04;;;;;;;0.10;0.10;;;;;;;22.81;51.78;101459.22;5042509;28;20592;-85
2021/08/09 10:13:33;;;;;;;0.10;0.10;;;;;;;22.41;51.81;101457.13;5033821;28;20033;-86
2021/08/09 10:16:04;;;;;;;0.10;0.10;;;;;;;22.54;52.47;101457.28;5034926;28;20037;-87
2021/08/09 10:18:33;;;;;;;0.10;0.10;;;;;;;22.46;51.06;101462.25;5036497;28;20411;-85
2021/08/09 10:21:03;;;;;;;0.10;0.10;;;;;;;22.51;50.81;101462.84;5040209;28;20052;-86
2021/08/09 10:23:49;;;;;;;0.20;0.20;;;;;;;22.38;50.72;101462.72;5043331;28;20112;-87
2021/08/09 10:29:14;;;;;;;0.10;0.10;;;;;;;22.64;51.05;101462.09;5107300;27;20727;-85
2021/08/09 10:31:45;;;;;;;0.75;0.65;;;;;;;22.62;51.08;101468.44;5100421;28;20039;-86
2021/08/09 10:34:33;;;;;;;0.38;0.38;;;;;;;22.54;50.02;101468.06;5102422;28;20479;-85
2021/08/09 10:37:19;;;;;;;0.10;0.10;;;;;;;22.69;50.39;101462.69;5100617;28;20055;-84
2021/08/09 10:45:14;;;;;;;0.50;0.50;;;;;;;22.76;49.09;101464.91;5067355;28;20442;-86
2021/08/09 10:47:57;;;;;;;0.10;0.10;;;;;;;23.10;49.29;101480.84;5054316;28;20060;-85
2021/08/09 10:56:46;;;;;;;2.75;1.00;;;;;;;23.47;47.82;101456.91;5089192;27;20439;-87
2021/08/09 10:59:49;;;;;;;0.10;0.10;;;;;;;23.72;47.96;101466.97;5069297;28;20104;-87
2021/08/09 11:11:03;;;;;;;0.10;0.10;;;;;;;24.37;46.28;101449.16;5099636;27;20397;-87
2021/08/09 11:13:50;;;;;;;0.10;0.10;;;;;;;24.41;46.63;101443.50;5090920;28;20036;-87
2021/08/09 11:16:31;;;;;;;0.10;0.10;;;;;;;24.32;46.95;101447.72;5076887;28;20029;-87
2021/08/09 11:18:58;;;;;;;0.10;0.10;;;;;;;24.24;48.09;101459.09;5076783;28;20029;-89
2021/08/09 11:21:26;;;;;;;0.40;0.40;;;;;;;23.81;47.29;101456.53;5077128;28;20476;-89
2021/08/09 11:23:52;;;;;;;0.20;0.20;;;;;;;23.66;47.68;101474.63;5073324;28;20103;-87
2021/08/09 11:26:28;;;;;;;0.30;0.30;;;;;;;23.43;48.38;101456.22;5101682;28;20057;-86
2021/08/09 11:29:04;;;;;;;0.10;0.10;;;;;;;23.51;47.94;101462.97;5097829;28;20448;-87
2021/08/09 11:31:45;;;;;;;0.10;0.10;;;;;;;23.58;48.89;101465.19;5074372;28;20071;-86
2021/08/09 11:34:12;;;;;;;0.10;0.10;;;;;;;23.11;48.57;101463.66;5085400;28;20402;-85
2021/08/09 11:36:38;;;;;;;0.10;0.10;;;;;;;22.98;49.29;101470.78;5081201;28;20103;-86
2021/08/09 11:39:04;;;;;;;0.10;0.10;;;;;;;23.06;49.43;101471.19;5082347;28;20102;-86
2021/08/09 11:41:31;;;;;;;0.10;0.10;;;;;;;23.16;49.01;101472.38;5081470;28;20028;-86
2021/08/09 11:44:06;;;;;;;0.10;0.10;;;;;;;23.35;48.50;101469.38;5087801;28;20016;-85
2021/08/09 11:46:43;;;;;;;0.10;0.10;;;;;;;23.57;48.21;101471.53;5075126;28;20143;-86
2021/08/09 11:49:09;;;;;;;0.10;0.10;;;;;;;23.78;47.64;101463.00;5077286;28;20060;-87
2021/08/09 11:51:35;;;;;;;0.10;0.10;;;;;;;24.02;48.62;101463.22;5076177;28;20029;-84
2021/08/09 11:54:04;;;;;;;0.10;0.10;;;;;;;23.57;47.49;101460.72;5077820;28;20040;-89
2021/08/09 11:56:31;;;;;;;0.00;0.00;;;;;;;24.03;47.06;101453.28;5076459;28;20036;-85
2021/08/09 11:59:02;;;;;;;0.35;0.35;;;;;;;24.01;46.19;101469.63;5084851;28;20077;-82
2021/08/09 12:01:38;;;;;;;0.13;0.13;;;;;;;23.98;45.68;101466.25;5077089;28;20027;-88
2021/08/09 12:09:40;;;;;;;0.10;0.10;;;;;;;23.71;46.59;101458.97;5056592;28;20469;-87
2021/08/09 12:12:09;;;;;;;0.10;0.10;;;;;;;23.69;47.97;101461.78;5047444;28;20079;-87